Helechawa, Kentucky
Current Conditions -  °F | °C
As of 10:53 PM on Tuesday 25 Nov 2014 (Local Time) from KJKL Reporting Station
Clear Clear  
Wind Chill: 41°   Ceiling: Unl
Heat Index: 41°   Visibility: 10mi
Dew Point: 27°   Wind: 0mph
Humidity: 57%   Direction: NA
Pressure: 30.13"   Gusts: NA
Location:  37.763°N, 83.3905°W
Report Text: KJKL 260353Z AUTO 00000KT 10SM CLR 05/M03 A3013 RMK AO2 SLP204 T00501028
Loading
Personal Weather Stations






























Interactive Weather Map New forecast layout! Learn more

10-Day Weather Forecast

Advertisements
Track Severe Weather on mobile